Lakeside, Louisiana
Current Conditions -  °F | °C
As of 2:53 PM on Sunday 23 Nov 2014 (Local Time) from KESF Reporting Station
Clear Clear  
Wind Chill: 73°   Ceiling: Unl
Heat Index: 73°   Visibility: 10mi
Dew Point: 58°   Wind: 14mph
Humidity: 59%   Direction: 220°SW
Pressure: 29.53"   Gusts: 25mph
Location:  31.3398°N, 92.3739°W
Report Text: KESF 232053Z AUTO 22012G22KT 10SM CLR 23/14 A2953 RMK AO2 SLP999 T02280144 55013
Loading
Personal Weather Stations






























Interactive Weather Map New forecast layout! Learn more

10-Day Weather Forecast

Advertisements
Track Severe Weather on mobile